Time;durP1;ratioP1;P1;durP2;ratioP2;P2;SDS_P1;SDS_P2;PMS_P1;PMS_P2;Temp;Humidity;BMP_temperature;BMP_pressure;BME280_temperature;BME280_humidity;BME280_pressure;Samples;Min_cycle;Max_cycle;Signal;HPM_P1;HPM_P2
2021/05/05 00:01:58;;;;;;;3.37;2.40;;;;;;;7.53;67.05;99041.05;128365;1101;62203;-75
2021/05/05 00:04:25;;;;;;;3.90;2.30;;;;;;;7.52;67.64;99036.77;128424;1101;62774;-74
2021/05/05 00:06:55;;;;;;;3.17;2.87;;;;;;;7.54;67.35;99032.11;128371;1101;64227;-75
2021/05/05 00:09:21;;;;;;;7.13;2.77;;;;;;;7.55;67.40;99045.12;128371;1101;62548;-75
2021/05/05 00:11:48;;;;;;;3.23;2.53;;;;;;;7.56;67.59;99040.65;128359;1101;62252;-76
2021/05/05 00:14:17;;;;;;;3.00;2.17;;;;;;;7.55;67.24;99033.76;128409;1101;62194;-76
2021/05/05 00:16:45;;;;;;;4.33;2.77;;;;;;;7.52;67.52;99047.33;128388;1101;63295;-76
2021/05/05 00:19:13;;;;;;;3.70;2.40;;;;;;;7.53;67.21;99019.95;128392;1101;62087;-76
2021/05/05 00:21:41;;;;;;;3.17;2.87;;;;;;;7.51;66.77;99021.96;128415;1101;62029;-75
2021/05/05 00:24:09;;;;;;;5.80;2.07;;;;;;;7.54;67.14;99032.11;128368;1101;62136;-75
2021/05/05 00:26:36;;;;;;;2.80;2.20;;;;;;;7.53;67.36;99025.22;128371;1101;61706;-75
2021/05/05 00:29:03;;;;;;;4.25;2.10;;;;;;;7.51;67.56;99016.69;128394;1101;63416;-75
2021/05/05 00:31:30;;;;;;;2.70;1.77;;;;;;;7.49;67.16;99023.98;128385;1101;62099;-75
2021/05/05 00:33:58;;;;;;;2.30;1.87;;;;;;;7.46;67.16;99014.64;128415;1101;62044;-75
2021/05/05 00:36:24;;;;;;;6.07;2.67;;;;;;;7.42;67.49;99034.51;128409;1101;62840;-75
2021/05/05 00:38:51;;;;;;;3.57;2.20;;;;;;;7.42;67.96;99020.51;128417;1101;62963;-76
2021/05/05 00:41:18;;;;;;;3.17;2.30;;;;;;;7.42;67.66;99029.23;128354;1101;62540;-75
2021/05/05 00:43:45;;;;;;;3.03;2.03;;;;;;;7.41;66.98;99019.67;128136;1103;62530;-74
2021/05/05 00:46:12;;;;;;;3.93;3.00;;;;;;;7.40;66.81;99010.14;128395;1101;62642;-75
2021/05/05 00:48:39;;;;;;;3.17;2.30;;;;;;;7.39;67.02;99002.41;128386;1101;62384;-75
2021/05/05 00:51:06;;;;;;;4.23;2.50;;;;;;;7.37;67.00;99021.07;128399;1101;62368;-75
2021/05/05 00:53:34;;;;;;;5.60;3.40;;;;;;;7.38;66.99;99019.27;128428;1101;62229;-75
2021/05/05 00:56:02;;;;;;;3.53;2.87;;;;;;;7.36;67.01;99008.91;128265;1101;62316;-75
2021/05/05 00:58:30;;;;;;;3.00;2.20;;;;;;;7.37;67.00;99010.52;128383;1101;62135;-75
2021/05/05 01:00:56;;;;;;;2.40;1.80;;;;;;;7.37;67.32;99013.16;128366;1101;62473;-75
2021/05/05 01:03:23;;;;;;;2.50;2.13;;;;;;;7.32;66.87;99019.02;128404;1101;62271;-76
2021/05/05 01:05:51;;;;;;;3.83;2.13;;;;;;;7.30;67.01;99020.23;128376;1101;62396;-77
2021/05/05 01:08:21;;;;;;;3.07;2.30;;;;;;;7.27;66.84;99042.55;128368;1101;62273;-77
2021/05/05 01:10:50;;;;;;;6.60;2.80;;;;;;;7.24;67.31;99021.81;128419;1101;61983;-77
2021/05/05 01:13:17;;;;;;;2.93;2.07;;;;;;;7.20;67.55;99012.66;128386;1101;63002;-77
2021/05/05 01:15:44;;;;;;;5.00;2.93;;;;;;;7.18;67.34;99012.04;128374;1101;62062;-76
2021/05/05 01:18:11;;;;;;;3.13;2.30;;;;;;;7.13;66.83;99019.73;128405;1101;62788;-75
2021/05/05 01:20:39;;;;;;;3.13;2.20;;;;;;;7.09;67.60;99024.56;128340;1101;62370;-75
2021/05/05 01:23:06;;;;;;;3.23;2.40;;;;;;;7.04;67.40;99013.80;128321;1101;62305;-76
2021/05/05 01:25:33;;;;;;;2.23;1.90;;;;;;;7.00;67.79;99001.20;128376;1101;62335;-76
2021/05/05 01:28:00;;;;;;;3.37;1.87;;;;;;;6.96;67.67;99024.48;128394;1101;62477;-76
2021/05/05 01:30:27;;;;;;;4.27;2.07;;;;;;;6.96;67.96;99021.85;128531;1101;62798;-76
2021/05/05 01:32:54;;;;;;;2.33;1.87;;;;;;;6.93;67.78;99017.78;128377;1101;62060;-76
2021/05/05 01:35:24;;;;;;;3.30;2.03;;;;;;;6.91;67.70;99022.44;128330;1101;62083;-76
2021/05/05 01:37:52;;;;;;;3.33;2.43;;;;;;;6.87;67.96;99037.00;128586;1101;62007;-76
2021/05/05 01:40:32;;;;;;;1.67;1.20;;;;;;;6.82;67.94;99031.50;128355;1101;62583;-76
2021/05/05 01:43:00;;;;;;;2.20;1.80;;;;;;;6.78;67.37;99034.69;128317;1101;62863;-75
2021/05/05 01:45:27;;;;;;;4.03;2.17;;;;;;;6.74;67.99;99029.00;128362;1101;62149;-76
2021/05/05 01:47:56;;;;;;;2.07;1.50;;;;;;;6.71;68.05;99011.73;128367;1101;62866;-76
2021/05/05 01:50:23;;;;;;;3.33;2.10;;;;;;;6.68;68.59;99032.39;128376;1101;62527;-76
2021/05/05 01:52:49;;;;;;;3.57;1.67;;;;;;;6.65;68.62;99030.97;128395;1101;62242;-76
2021/05/05 01:55:16;;;;;;;3.30;2.10;;;;;;;6.62;68.95;99027.88;128360;1101;62466;-76
2021/05/05 01:57:43;;;;;;;3.30;1.83;;;;;;;6.58;69.04;99074.05;128339;1101;62587;-76
2021/05/05 02:00:15;;;;;;;3.43;1.53;;;;;;;6.61;69.29;99042.05;128357;1101;62539;-76
2021/05/05 02:02:42;;;;;;;5.03;2.00;;;;;;;6.62;69.03;99033.16;128409;1101;62119;-76
2021/05/05 02:05:09;;;;;;;2.30;1.97;;;;;;;6.60;69.50;99030.70;128336;1101;62259;-76
2021/05/05 02:07:37;;;;;;;4.20;1.80;;;;;;;6.60;68.98;99029.89;128139;1102;63279;-76
2021/05/05 02:10:14;;;;;;;3.30;2.00;;;;;;;6.59;69.20;99033.52;128324;1101;62360;-76
2021/05/05 02:12:41;;;;;;;3.50;1.60;;;;;;;6.58;69.43;99034.53;128389;1101;62015;-76
2021/05/05 02:15:11;;;;;;;3.90;2.40;;;;;;;6.60;69.51;99029.89;128130;1101;62061;-76
2021/05/05 02:17:38;;;;;;;3.53;1.40;;;;;;;6.60;69.19;99027.26;128386;1101;62128;-76
2021/05/05 02:20:06;;;;;;;2.83;1.97;;;;;;;6.59;70.01;99020.34;128390;1101;62100;-76
2021/05/05 02:22:33;;;;;;;5.80;2.90;;;;;;;6.60;69.45;99030.70;128350;1101;62513;-76
2021/05/05 02:24:59;;;;;;;3.83;2.17;;;;;;;6.59;70.24;99018.55;128395;1101;62092;-76
2021/05/05 02:27:27;;;;;;;3.00;2.13;;;;;;;6.60;70.83;99024.63;128388;1101;62151;-75
2021/05/05 02:29:54;;;;;;;3.57;1.93;;;;;;;6.58;71.70;99027.44;128463;1101;62526;-76
2021/05/05 02:32:23;;;;;;;2.77;2.40;;;;;;;6.54;71.97;99020.92;128370;1101;62880;-76
2021/05/05 02:34:52;;;;;;;3.10;2.10;;;;;;;6.50;72.12;99011.77;128300;1101;62255;-76
2021/05/05 02:37:19;;;;;;;4.67;1.90;;;;;;;6.46;72.59;99011.34;128390;1101;62793;-76
2021/05/05 02:39:45;;;;;;;5.57;2.13;;;;;;;6.44;72.38;99013.36;128423;1101;62189;-76
2021/05/05 02:42:15;;;;;;;4.23;2.00;;;;;;;6.44;70.99;99015.98;128423;1101;61997;-76
2021/05/05 02:44:44;;;;;;;5.80;2.50;;;;;;;6.49;70.87;99007.52;128386;1101;62868;-76
2021/05/05 02:47:12;;;;;;;3.63;1.87;;;;;;;6.50;70.52;98998.59;128381;1101;62012;-76
2021/05/05 02:49:39;;;;;;;3.03;2.40;;;;;;;6.49;69.25;99003.05;128418;1101;62563;-76
2021/05/05 02:52:06;;;;;;;4.97;2.50;;;;;;;6.55;69.88;98995.41;128281;1101;62386;-75
2021/05/05 02:54:33;;;;;;;1.83;1.27;;;;;;;6.55;69.63;99000.69;128354;1101;62060;-76
2021/05/05 02:57:01;;;;;;;2.20;1.60;;;;;;;6.56;69.33;98997.84;128366;1101;62706;-76
2021/05/05 02:59:27;;;;;;;4.43;2.10;;;;;;;6.59;69.46;98997.47;128398;1101;62373;-76
2021/05/05 03:01:56;;;;;;;2.40;1.70;;;;;;;6.59;69.09;99004.53;128411;1101;62378;-76
2021/05/05 03:04:24;;;;;;;2.90;2.30;;;;;;;6.59;69.71;98991.36;128404;1101;62370;-76
2021/05/05 03:06:52;;;;;;;2.67;1.73;;;;;;;6.56;69.35;99036.55;128401;1101;62136;-75
2021/05/05 03:09:25;;;;;;;2.97;1.40;;;;;;;6.51;69.48;99022.12;128412;1101;62289;-76
2021/05/05 03:12:01;;;;;;;1.33;1.00;;;;;;;6.52;69.70;99023.77;128283;1101;62755;-75
2021/05/05 03:14:29;;;;;;;2.87;1.77;;;;;;;6.53;69.49;99024.58;128360;1101;63107;-76
2021/05/05 03:16:58;;;;;;;3.97;2.43;;;;;;;6.52;69.06;99023.77;128402;1101;62154;-75
2021/05/05 03:19:25;;;;;;;4.47;1.90;;;;;;;6.51;69.27;99016.84;128374;1101;61996;-76
2021/05/05 03:21:51;;;;;;;1.70;1.27;;;;;;;6.49;69.05;99008.32;128404;1101;62809;-76
2021/05/05 03:24:18;;;;;;;2.03;1.23;;;;;;;6.50;68.89;99019.67;128382;1101;62554;-76
2021/05/05 03:26:45;;;;;;;2.10;1.60;;;;;;;6.51;69.08;99018.67;128434;1101;63414;-76
2021/05/05 03:29:12;;;;;;;7.73;1.70;;;;;;;6.46;70.36;99008.72;128291;1101;62099;-76
2021/05/05 03:31:42;;;;;;;4.40;1.50;;;;;;;6.39;71.54;99028.89;128357;1101;62551;-76
2021/05/05 03:34:09;;;;;;;2.60;1.50;;;;;;;6.30;71.53;99003.70;128391;1101;63028;-76
2021/05/05 03:36:36;;;;;;;1.73;1.13;;;;;;;6.23;72.56;98992.30;128408;1101;62522;-76
2021/05/05 03:39:05;;;;;;;2.80;1.60;;;;;;;6.20;72.32;99008.46;128400;1100;62279;-76
2021/05/05 03:41:32;;;;;;;5.07;2.17;;;;;;;6.12;74.32;99031.28;128413;1101;62086;-76
2021/05/05 03:43:58;;;;;;;2.20;1.37;;;;;;;5.98;77.04;99032.14;128403;1101;62233;-76
2021/05/05 03:46:25;;;;;;;2.93;2.27;;;;;;;5.89;77.21;99034.05;128359;1101;62968;-76
2021/05/05 03:48:52;;;;;;;3.23;1.70;;;;;;;5.83;78.16;99013.73;128428;1101;62967;-75
2021/05/05 03:51:20;;;;;;;4.27;2.50;;;;;;;5.80;78.14;99021.17;128411;1101;62601;-76
2021/05/05 03:53:46;;;;;;;3.30;2.67;;;;;;;5.77;76.91;99005.77;128299;1101;62191;-76
2021/05/05 03:56:13;;;;;;;2.10;1.70;;;;;;;5.77;76.63;99008.39;128394;1101;62174;-76
2021/05/05 03:58:40;;;;;;;3.10;2.40;;;;;;;5.78;75.80;99010.02;128275;1101;62973;-75
2021/05/05 04:01:06;;;;;;;2.20;1.70;;;;;;;5.86;73.48;99025.70;128379;1101;63042;-76
2021/05/05 04:03:33;;;;;;;2.80;1.43;;;;;;;5.95;71.58;99010.63;128166;1101;62337;-76
2021/05/05 04:06:00;;;;;;;1.50;1.13;;;;;;;5.99;71.87;99015.33;128423;1101;62143;-76
2021/05/05 04:08:26;;;;;;;3.20;1.37;;;;;;;6.01;71.79;99029.13;128388;1101;61735;-77
2021/05/05 04:10:53;;;;;;;1.97;1.20;;;;;;;6.01;72.56;99026.49;128371;1101;62501;-76
2021/05/05 04:13:20;;;;;;;2.97;1.60;;;;;;;6.01;71.85;99021.23;128366;1101;61982;-76
2021/05/05 04:16:04;;;;;;;3.58;1.33;;;;;;;6.01;71.48;99042.28;128319;1101;63036;-76
2021/05/05 04:18:49;;;;;;;2.68;1.38;;;;;;;6.04;72.11;99035.86;128407;1101;62062;-76
2021/05/05 04:21:34;;;;;;;2.80;1.50;;;;;;;5.93;74.32;99039.77;128309;1101;62326;-75
2021/05/05 04:24:18;;;;;;;2.83;1.33;;;;;;;5.82;75.08;99042.84;128321;1101;61948;-78
2021/05/05 04:26:50;;;;;;;3.37;1.50;;;;;;;5.74;76.06;99035.90;128358;1101;62310;-77
2021/05/05 04:29:18;;;;;;;3.47;1.53;;;;;;;5.68;76.10;99036.63;128403;1101;62544;-76
2021/05/05 04:31:51;;;;;;;3.77;1.70;;;;;;;5.64;75.95;99030.11;128366;1101;62473;-77
2021/05/05 04:34:19;;;;;;;3.87;1.63;;;;;;;5.60;76.32;99034.91;128323;1101;63029;-78
2021/05/05 04:36:46;;;;;;;5.60;1.80;;;;;;;5.61;75.55;99031.30;128172;1101;62793;-78
2021/05/05 04:39:13;;;;;;;2.17;1.27;;;;;;;5.64;76.06;99036.17;128305;1101;62769;-78
2021/05/05 04:41:40;;;;;;;6.37;1.73;;;;;;;5.64;75.26;99059.84;128159;1102;62267;-78
2021/05/05 04:44:07;;;;;;;3.50;1.27;;;;;;;5.68;74.49;99041.89;128395;1101;62332;-78
2021/05/05 04:46:33;;;;;;;6.37;1.57;;;;;;;5.70;75.28;99038.07;128354;1101;62061;-79
2021/05/05 04:49:01;;;;;;;1.70;1.03;;;;;;;5.75;74.75;99041.97;128406;1100;62426;-78
2021/05/05 04:51:27;;;;;;;5.67;1.73;;;;;;;5.79;74.73;99048.50;128278;1101;62985;-78
2021/05/05 04:53:54;;;;;;;2.10;1.40;;;;;;;5.81;74.54;99046.50;128398;1101;62228;-78
2021/05/05 04:56:21;;;;;;;13.33;1.63;;;;;;;5.84;74.69;99067.16;128404;1101;62867;-78
2021/05/05 04:58:47;;;;;;;2.90;1.70;;;;;;;5.89;74.67;99064.81;128433;1101;62046;-77
2021/05/05 05:01:14;;;;;;;4.17;1.87;;;;;;;5.91;74.93;99060.99;128380;1101;62355;-77
2021/05/05 05:03:41;;;;;;;6.57;2.00;;;;;;;5.97;74.88;99059.48;128149;1101;62324;-76
2021/05/05 05:06:07;;;;;;;5.93;2.10;;;;;;;6.02;74.52;99067.63;128183;1101;62219;-77
2021/05/05 05:08:35;;;;;;;3.40;1.97;;;;;;;6.03;73.65;99071.87;128115;1101;62241;-78
2021/05/05 05:11:02;;;;;;;6.20;2.00;;;;;;;6.07;74.29;99073.13;127890;1101;64183;-77
2021/05/05 05:13:32;;;;;;;3.70;1.63;;;;;;;6.06;74.41;99076.78;127899;1101;62271;-78
2021/05/05 05:15:58;;;;;;;5.03;1.77;;;;;;;6.10;73.47;99083.31;128052;1101;62317;-77
2021/05/05 05:18:25;;;;;;;3.90;2.10;;;;;;;6.15;73.67;99080.11;128330;1101;64352;-78
2021/05/05 05:20:55;;;;;;;3.13;1.83;;;;;;;6.20;73.22;99076.92;128156;1095;62305;-77
2021/05/05 05:23:36;;;;;;;2.83;1.68;;;;;;;6.25;73.32;99079.83;127873;1104;62365;-79
2021/05/05 05:26:03;;;;;;;3.43;2.13;;;;;;;6.30;72.14;99093.23;128042;1104;62311;-76
2021/05/05 05:28:29;;;;;;;5.77;1.60;;;;;;;6.38;72.65;99090.48;128034;1105;62760;-75
2021/05/05 05:30:56;;;;;;;6.13;2.73;;;;;;;6.45;72.79;99086.09;128012;1104;62251;-75
2021/05/05 05:33:25;;;;;;;4.40;2.17;;;;;;;6.51;72.56;99084.53;128055;1104;62565;-73
2021/05/05 05:35:52;;;;;;;1.80;1.60;;;;;;;6.54;72.05;99102.59;128070;1104;62079;-74
2021/05/05 05:38:19;;;;;;;4.00;1.70;;;;;;;6.55;71.57;99096.33;128034;1105;61946;-74
2021/05/05 05:40:45;;;;;;;4.40;2.03;;;;;;;6.54;72.03;99110.48;128023;1104;62327;-73
2021/05/05 05:43:12;;;;;;;6.17;1.80;;;;;;;6.44;73.05;99110.81;128070;1104;62151;-74
2021/05/05 05:45:38;;;;;;;3.10;2.00;;;;;;;6.34;73.98;99118.20;128057;1104;62282;-74
2021/05/05 05:48:06;;;;;;;3.33;1.60;;;;;;;6.24;73.39;99113.22;128047;1104;62200;-74
2021/05/05 05:50:32;;;;;;;2.63;1.47;;;;;;;6.18;73.51;99111.33;127998;1105;62844;-74
2021/05/05 05:52:59;;;;;;;3.50;1.63;;;;;;;6.18;73.74;99126.31;127944;1105;62888;-74
2021/05/05 05:55:29;;;;;;;1.93;1.17;;;;;;;6.24;74.04;99118.48;128057;1104;62079;-74
2021/05/05 05:57:57;;;;;;;3.00;1.30;;;;;;;6.29;72.95;99107.39;127994;1104;62366;-74
2021/05/05 06:00:25;;;;;;;3.30;2.00;;;;;;;6.41;73.30;99099.83;128104;1101;62873;-75
2021/05/05 06:02:51;;;;;;;5.37;1.40;;;;;;;6.47;72.36;99099.89;128384;1101;62063;-75
2021/05/05 06:05:18;;;;;;;2.57;1.20;;;;;;;6.51;71.58;99106.42;128370;1101;62245;-75
2021/05/05 06:07:45;;;;;;;4.23;1.17;;;;;;;6.66;71.14;99119.53;128394;1101;62690;-73
2021/05/05 06:10:12;;;;;;;2.70;1.30;;;;;;;6.81;69.64;99116.83;128378;1096;62234;-74
2021/05/05 06:12:40;;;;;;;2.30;1.00;;;;;;;6.88;69.68;99165.14;128303;1101;62991;-74
2021/05/05 06:15:08;;;;;;;2.50;1.30;;;;;;;6.90;68.20;99109.60;128132;1103;62575;-75
2021/05/05 06:17:35;;;;;;;3.15;1.10;;;;;;;6.99;67.28;99108.48;128339;1101;62165;-74
2021/05/05 06:20:06;;;;;;;5.23;3.40;;;;;;;7.06;67.71;99119.88;128391;1101;63316;-73
2021/05/05 06:22:33;;;;;;;5.63;1.77;;;;;;;7.13;67.53;99127.84;128402;1101;62322;-73
2021/05/05 06:25:01;;;;;;;5.73;2.30;;;;;;;7.21;67.32;99117.16;128395;1101;61999;-73
2021/05/05 06:27:27;;;;;;;2.53;1.07;;;;;;;7.26;66.84;99120.02;128394;1101;63189;-73
2021/05/05 06:29:54;;;;;;;5.80;2.33;;;;;;;7.30;66.33;99121.27;128404;1101;62317;-73
2021/05/05 06:32:20;;;;;;;11.00;6.40;;;;;;;7.34;66.05;99126.98;128048;1101;62262;-73
2021/05/05 06:34:48;;;;;;;4.40;2.37;;;;;;;7.30;66.74;99139.73;128442;1101;62427;-73
2021/05/05 06:37:16;;;;;;;10.13;5.73;;;;;;;7.35;67.62;99124.16;128408;1101;62225;-73
2021/05/05 06:39:44;;;;;;;6.40;3.47;;;;;;;7.39;66.68;99123.77;128445;1101;62601;-73
2021/05/05 06:42:10;;;;;;;8.93;3.33;;;;;;;7.44;66.40;99132.74;128170;1101;62272;-73
2021/05/05 06:44:38;;;;;;;3.30;1.57;;;;;;;7.48;66.40;99122.59;128404;1101;62338;-73
2021/05/05 06:47:05;;;;;;;4.73;1.37;;;;;;;7.46;65.17;99116.70;128133;1101;64142;-73
2021/05/05 06:49:34;;;;;;;7.80;4.57;;;;;;;7.50;65.52;99123.22;128469;1101;62226;-73
2021/05/05 06:52:01;;;;;;;4.80;1.50;;;;;;;7.45;62.89;99138.83;128390;1101;62841;-73
2021/05/05 06:54:28;;;;;;;5.70;1.93;;;;;;;7.35;62.48;99150.55;128402;1101;62382;-73
2021/05/05 06:56:57;;;;;;;5.63;0.97;;;;;;;7.29;63.67;99135.48;128326;1101;62765;-76
2021/05/05 06:59:23;;;;;;;4.97;1.10;;;;;;;7.24;63.64;99148.41;128256;1101;63496;-74
2021/05/05 07:01:50;;;;;;;3.60;1.23;;;;;;;7.24;63.14;99143.13;128356;1101;62285;-75
2021/05/05 07:04:16;;;;;;;3.53;1.17;;;;;;;7.25;63.87;99155.33;128362;1101;62838;-73
2021/05/05 07:06:43;;;;;;;5.07;1.30;;;;;;;7.35;63.74;99139.99;128336;1101;62256;-72
2021/05/05 07:09:30;;;;;;;4.57;1.17;;;;;;;7.39;62.59;99158.88;128330;1101;62255;-73
2021/05/05 07:11:57;;;;;;;3.13;1.10;;;;;;;7.49;62.66;99135.60;128376;1101;62518;-72
2021/05/05 07:14:23;;;;;;;2.27;0.87;;;;;;;7.58;61.31;99160.02;128370;1101;61990;-73
2021/05/05 07:16:50;;;;;;;7.07;1.40;;;;;;;7.58;60.97;99175.84;128380;1101;62882;-74
2021/05/05 07:19:17;;;;;;;3.73;1.30;;;;;;;7.68;61.40;99139.38;128323;1101;63506;-74
2021/05/05 07:21:44;;;;;;;3.47;1.10;;;;;;;7.73;61.32;99163.35;128363;1101;62113;-75
2021/05/05 07:24:10;;;;;;;3.73;1.30;;;;;;;7.73;60.14;99147.52;128388;1101;62150;-73
2021/05/05 07:26:37;;;;;;;4.07;1.27;;;;;;;7.78;60.60;99144.31;128339;1101;61693;-75
2021/05/05 07:29:04;;;;;;;3.33;1.00;;;;;;;7.84;59.33;99142.70;128354;1101;62168;-73
2021/05/05 07:31:31;;;;;;;6.60;1.20;;;;;;;7.75;59.98;99195.65;128370;1101;62261;-74
2021/05/05 07:33:59;;;;;;;4.70;1.27;;;;;;;7.69;59.78;99161.30;128392;1101;62146;-74
2021/05/05 07:36:27;;;;;;;1.93;0.70;;;;;;;7.69;60.21;99153.38;128444;1101;62382;-74
2021/05/05 07:45:05;;;;;;;6.07;1.00;;;;;;;7.94;58.12;99159.01;128339;1101;61871;-75
2021/05/05 07:46:59;;;;;;;5.70;1.20;;;;;;;8.00;57.63;99157.42;128312;1101;62325;-74
2021/05/05 07:49:37;;;;;;;3.00;1.20;;;;;;;8.13;57.93;99158.28;128354;1101;62256;-73
2021/05/05 07:52:03;;;;;;;5.30;1.17;;;;;;;8.20;56.93;99158.30;128415;1101;63006;-73
2021/05/05 07:54:29;;;;;;;3.00;0.90;;;;;;;8.23;55.76;99162.41;128381;1101;62240;-73
2021/05/05 07:56:55;;;;;;;5.13;0.87;;;;;;;8.25;55.50;99186.80;128379;1101;62399;-74
2021/05/05 07:59:21;;;;;;;3.70;0.90;;;;;;;8.23;55.27;99163.20;128334;1101;62128;-73
2021/05/05 08:01:47;;;;;;;6.20;1.10;;;;;;;8.31;55.52;99191.30;128401;1101;62290;-73
2021/05/05 08:04:14;;;;;;;6.43;1.20;;;;;;;8.44;56.39;99154.38;128435;1101;62284;-75
2021/05/05 08:06:41;;;;;;;4.30;1.13;;;;;;;8.62;55.42;99166.20;128174;1102;62146;-74
2021/05/05 08:09:08;;;;;;;3.17;1.07;;;;;;;8.70;55.15;99160.73;128355;1101;62513;-74
2021/05/05 08:11:34;;;;;;;6.90;1.53;;;;;;;8.59;54.22;99193.05;128433;1101;62161;-75
2021/05/05 08:14:01;;;;;;;6.57;2.10;;;;;;;8.60;53.45;99194.66;128401;1101;62100;-75
2021/05/05 08:16:28;;;;;;;5.60;1.23;;;;;;;8.61;54.89;99169.84;128433;1101;62007;-74
2021/05/05 08:18:55;;;;;;;4.27;1.20;;;;;;;8.55;54.67;99168.84;128393;1101;63161;-74
2021/05/05 08:21:23;;;;;;;2.83;0.70;;;;;;;8.58;54.81;99160.49;128130;1102;62085;-75
2021/05/05 08:23:51;;;;;;;6.90;1.47;;;;;;;8.71;55.53;99176.41;128438;1101;62236;-77
2021/05/05 08:26:19;;;;;;;3.93;1.70;;;;;;;8.88;55.56;99195.36;128157;1102;62476;-78
2021/05/05 08:28:46;;;;;;;6.67;1.57;;;;;;;8.89;53.68;99181.11;128435;1101;62252;-78
2021/05/05 08:31:13;;;;;;;7.70;1.60;;;;;;;8.90;53.24;99164.20;128355;1101;63107;-77
2021/05/05 08:33:40;;;;;;;3.77;1.00;;;;;;;9.03;53.48;99186.41;128395;1101;62308;-78
2021/05/05 08:36:07;;;;;;;9.43;2.03;;;;;;;9.06;51.74;99193.95;128456;1101;62285;-79
2021/05/05 08:38:36;;;;;;;3.57;1.33;;;;;;;9.09;52.68;99161.80;128385;1101;62286;-79
2021/05/05 08:41:04;;;;;;;3.43;1.10;;;;;;;9.08;53.08;99176.05;128428;1101;62095;-79
2021/05/05 08:43:34;;;;;;;5.63;1.70;;;;;;;9.12;53.24;99201.09;128427;1101;62889;-79
2021/05/05 08:46:01;;;;;;;4.00;1.23;;;;;;;9.25;51.88;99187.86;128375;1101;62113;-80
2021/05/05 08:48:31;;;;;;;3.73;1.07;;;;;;;9.47;52.44;99179.70;128498;1101;62057;-78
2021/05/05 08:50:58;;;;;;;5.73;1.53;;;;;;;9.65;52.73;99166.66;128269;1101;62125;-79
2021/05/05 08:53:24;;;;;;;6.70;1.20;;;;;;;9.61;50.88;99181.33;128426;1094;62290;-80
2021/05/05 08:55:51;;;;;;;4.63;1.20;;;;;;;9.52;51.66;99179.89;128366;1101;63166;-78
2021/05/05 08:58:18;;;;;;;7.53;1.43;;;;;;;9.37;52.48;99186.23;128180;1102;64346;-80
2021/05/05 09:00:44;;;;;;;4.63;0.77;;;;;;;9.28;50.28;99208.61;128420;1101;62109;-79
2021/05/05 09:03:11;;;;;;;3.20;1.13;;;;;;;9.11;51.62;99196.80;128447;1101;63405;-79
2021/05/05 09:05:55;;;;;;;6.23;1.33;;;;;;;9.07;53.73;99184.98;128299;1101;62102;-77
2021/05/05 09:08:22;;;;;;;3.43;0.93;;;;;;;9.06;53.77;99196.60;128409;1101;63941;-79
2021/05/05 09:10:55;;;;;;;6.03;1.07;;;;;;;9.06;53.52;99201.89;128388;1101;62174;-80
2021/05/05 09:13:53;;;;;;;6.77;1.27;;;;;;;9.04;52.70;99219.79;128470;1101;62134;-80
2021/05/05 09:16:26;;;;;;;1.70;0.70;;;;;;;9.17;52.08;99185.41;128413;1100;62031;-80
2021/05/05 09:18:57;;;;;;;4.93;1.80;;;;;;;9.19;53.28;99194.77;128254;1102;62241;-74
2021/05/05 09:21:27;;;;;;;6.17;3.17;;;;;;;9.28;54.22;99197.22;128406;1101;63376;-76
2021/05/05 09:24:15;;;;;;;7.03;2.03;;;;;;;9.34;53.94;99196.41;128440;1101;62237;-72
2021/05/05 09:26:42;;;;;;;3.73;0.93;;;;;;;9.48;50.30;99198.04;128450;1101;62071;-77
2021/05/05 09:29:09;;;;;;;6.93;1.20;;;;;;;9.65;50.57;99195.78;128193;1101;62500;-77
2021/05/05 09:31:38;;;;;;;1.60;1.00;;;;;;;9.77;50.28;99191.47;128512;1101;62022;-77
2021/05/05 09:34:12;;;;;;;5.10;1.43;;;;;;;9.79;48.73;99197.38;128460;1101;62339;-78
2021/05/05 09:36:59;;;;;;;3.60;0.70;;;;;;;9.74;48.39;99213.08;128478;1101;62193;-79
2021/05/05 09:39:32;;;;;;;3.40;1.30;;;;;;;9.90;48.19;99173.92;128470;1101;62220;-79
2021/05/05 09:42:00;;;;;;;4.83;0.70;;;;;;;10.27;46.30;99196.23;128548;1101;63032;-80
2021/05/05 09:44:27;;;;;;;4.50;1.30;;;;;;;10.21;48.10;99189.13;128180;1101;62518;-80
2021/05/05 09:46:57;;;;;;;7.07;1.20;;;;;;;10.24;50.52;99179.94;128517;1101;62809;-77
2021/05/05 09:49:28;;;;;;;4.40;1.00;;;;;;;10.39;49.92;99194.59;128416;1101;62381;-80
2021/05/05 09:51:59;;;;;;;3.50;1.13;;;;;;;10.30;50.47;99193.19;128518;1101;62000;-79
2021/05/05 09:54:32;;;;;;;1.90;0.90;;;;;;;10.31;51.34;99201.98;128516;1101;62337;-81
2021/05/05 09:57:32;;;;;;;4.00;1.13;;;;;;;10.15;50.16;99203.20;128263;1103;62206;-79
2021/05/05 10:00:11;;;;;;;5.57;1.23;;;;;;;10.08;51.54;99192.63;128222;1101;63962;-81
2021/05/05 10:02:48;;;;;;;6.13;1.90;;;;;;;10.16;51.95;99205.66;128450;1101;63901;-78
2021/05/05 10:05:20;;;;;;;3.57;1.17;;;;;;;10.25;49.44;99216.03;128483;1101;62230;-79
2021/05/05 10:07:55;;;;;;;4.40;1.03;;;;;;;10.32;50.11;99222.14;128502;1101;62118;-79
2021/05/05 10:10:27;;;;;;;1.88;1.00;;;;;;;10.40;47.91;99211.31;128534;1101;62142;-80
2021/05/05 10:12:56;;;;;;;3.13;1.13;;;;;;;10.47;49.06;99227.98;128484;1101;62753;-80
2021/05/05 10:15:24;;;;;;;4.77;1.20;;;;;;;10.53;47.07;99239.60;128506;1101;61849;-80
2021/05/05 10:17:51;;;;;;;3.00;1.20;;;;;;;10.44;46.18;99240.88;128462;1101;62899;-78
2021/05/05 10:20:22;;;;;;;7.33;1.53;;;;;;;10.39;47.76;99236.17;128483;1101;62052;-79
2021/05/05 10:22:54;;;;;;;4.33;1.43;;;;;;;10.48;46.86;99226.98;128504;1101;62250;-77
2021/05/05 10:25:21;;;;;;;6.33;2.50;;;;;;;10.68;46.54;99228.72;128461;1101;62798;-80
2021/05/05 10:27:47;;;;;;;3.60;0.90;;;;;;;10.60;45.93;99221.81;128176;1101;62983;-80
2021/05/05 10:30:18;;;;;;;3.63;1.50;;;;;;;10.37;46.70;99264.73;128444;1101;62170;-79
2021/05/05 10:33:04;;;;;;;3.20;1.10;;;;;;;10.29;47.32;99225.19;128431;1101;62453;-79
2021/05/05 10:35:31;;;;;;;4.10;1.10;;;;;;;10.61;46.64;99255.28;128503;1101;62142;-79
2021/05/05 10:38:00;;;;;;;5.73;1.27;;;;;;;10.70;46.12;99243.39;128463;1101;62141;-79
2021/05/05 10:40:32;;;;;;;3.80;0.90;;;;;;;10.74;46.48;99265.02;128522;1101;62003;-80
2021/05/05 10:43:05;;;;;;;2.90;1.40;;;;;;;10.73;46.99;99244.80;128515;1101;64034;-79
2021/05/05 10:45:33;;;;;;;1.43;0.70;;;;;;;10.73;46.91;99228.89;128504;1101;62154;-80
2021/05/05 10:48:07;;;;;;;2.77;1.23;;;;;;;10.69;46.11;99246.25;128495;1101;62555;-80
2021/05/05 10:50:51;;;;;;;5.07;1.23;;;;;;;10.49;47.29;99241.05;128506;1101;64135;-80
2021/05/05 10:53:27;;;;;;;2.53;0.80;;;;;;;10.47;47.11;99243.09;128510;1101;62251;-80
2021/05/05 10:55:56;;;;;;;2.73;1.00;;;;;;;10.66;47.57;99263.41;128515;1101;62149;-80
2021/05/05 10:58:27;;;;;;;5.60;1.43;;;;;;;10.89;45.70;99256.78;128472;1101;62175;-79
2021/05/05 11:01:07;;;;;;;2.43;0.80;;;;;;;10.72;43.28;99289.09;128522;1101;62287;-79
2021/05/05 11:03:42;;;;;;;4.40;1.93;;;;;;;10.60;44.31;99275.69;128475;1101;63978;-80
2021/05/05 11:06:40;;;;;;;2.23;1.00;;;;;;;10.77;44.85;99249.50;128439;1101;62316;-80
2021/05/05 11:09:12;;;;;;;4.33;1.00;;;;;;;10.86;44.40;99278.41;128281;1101;62579;-79
2021/05/05 11:11:46;;;;;;;1.73;0.70;;;;;;;10.83;44.75;99300.88;128388;1101;62159;-80
2021/05/05 11:14:45;;;;;;;2.97;1.10;;;;;;;10.77;44.99;99270.72;128443;1101;62412;-79
2021/05/05 11:17:27;;;;;;;2.13;0.93;;;;;;;10.88;45.74;99257.79;128443;1101;62793;-81
2021/05/05 11:19:55;;;;;;;3.50;1.23;;;;;;;11.08;46.44;99263.00;128314;1101;62105;-78
2021/05/05 11:22:26;;;;;;;2.73;1.10;;;;;;;11.33;45.36;99274.48;128291;1101;61925;-77
2021/05/05 11:24:53;;;;;;;2.13;1.20;;;;;;;11.30;44.66;99264.27;128473;1101;62351;-78
2021/05/05 11:27:47;;;;;;;1.73;0.80;;;;;;;11.14;46.24;99273.58;128389;1101;62404;-78
2021/05/05 11:30:48;;;;;;;8.70;1.87;;;;;;;11.02;47.96;99283.23;128117;1101;62408;-78
2021/05/05 11:33:17;;;;;;;3.77;1.03;;;;;;;11.13;48.73;99295.02;128430;1101;62506;-77
2021/05/05 11:35:43;;;;;;;2.83;1.00;;;;;;;11.39;48.16;99305.48;128340;1101;62410;-78
2021/05/05 11:38:18;;;;;;;2.20;0.83;;;;;;;11.50;45.10;99305.83;128248;1101;62477;-78
2021/05/05 11:40:59;;;;;;;2.50;0.70;;;;;;;11.74;45.94;99296.25;128435;1101;62538;-79
2021/05/05 11:43:29;;;;;;;2.00;0.63;;;;;;;11.71;46.73;99305.47;128408;1101;62280;-79
2021/05/05 11:45:59;;;;;;;1.33;0.60;;;;;;;11.20;48.66;99354.20;128405;1101;62318;-78
2021/05/05 11:48:30;;;;;;;2.87;0.70;;;;;;;11.12;50.33;99307.48;128434;1101;62196;-79